Rejestracja

Wszystkie dane podawane są w czasie UTC za wyjątkiem miejsc gdzie jest jednoznacznie podane, że jest inaczej. Dane podawane w serwisie mają charakter informacyjny!!!
Informacje w sprawie dostępu do serwisu pod numerem tel. +48 261-828-138
Informacja dla żołnierzy i pracowników wojska: Prosimy o niezwłoczną zmianę adresu e-mail w profilu użytkownika na pocztę w domenie @ron.mil.pl

Aktualna Pogoda
 
Pogoda w Polsce
4°C Szczecin 3°C Suwałki 4°C Warszawa 5°C Poznan
4°C Opole 5°C Kraków 5°C Rzeszów
Więcej miast w Polsce

Pogoda w Europie
8°C Berlin 7°C Paryz 7°C Bruksela 2°C Oslo
5°C Praga 10°C Zagrzeb
Więcej miast w Europie

Metary wojskowe test
METAR EPBC 281400Z 28006KT 9999 BKN040 04/M02 Q1010=
METAR EPCE 281400Z 24014KT 9999 BKN015 03/M00 Q1006 RMK 029 080 7/7=
METAR EPDA 281400Z 26010KT 220V290 9999 -SHRA FEW008 BKN018TCU 03/02 Q1008 RMK 033 089 6/1=
METAR EPDE 281400Z 28010KT 9999 BKN027 04/00 Q1010 RMK 036 077 6/6=
METAR EPIR 281400Z 25016KT 9999 BKN027 04/M02 Q1010 RMK 044 064 7/7=
METAR EPKS 281400Z 28011KT 9999 SCT021 BKN042 04/01 Q1012 RMK 044 079 7/4=
METAR EPLK 281400Z 26011KT 9999 SCT024CB BKN040 BKN070 04/M01 Q1011 RMK 042 068 7/3=
METAR EPLY 281400Z 29012KT 9999 SCT030 BKN060 05/M00 Q1010 RMK 050 070 6/4=
METAR EPMB 281400Z 29013KT 9999 BKN035 06/M02 Q1007 RMK 063 057 5/5=
METAR EPMI 281400Z 24006KT 6000 -SHRA BKN008 BKN013CB 03/02 Q1009 RMK 031 091 7/5=
METAR EPMM 281400Z 29014KT 9999 BKN027 05/M02 Q1008 RMK 047 061 5/5=
METAR EPNA 281400Z 25009KT 8000 SCT012 BKN030 03/00 Q1009 RMK 027 082 7/4=
METAR EPOK 281400Z 25011KT 220V290 9999 -SHRA SCT022TCU BKN057 04/M00 Q1006 RMK 039 075 7/3=
METAR EPPR 281400Z 25010KT 9999 -RA FEW030 BKN036 05/M02 Q1007 RMK 051 060 7/2=
METAR EPPW 281400Z 28018KT 9999 SCT020 BKN040 04/M01 Q1011 RMK 036 073 7/3=
METAR EPSN 281400Z 26014KT 9999 SCT010 BKN015 04/03 Q1009 RMK 037 096 6/3=
METAR EPTM 281400Z 29004KT 9999 SCT027 BKN050 04/M01 Q1011 RMK 040 070 7/3=


 

Prawa autorskie©2007 SSH SZ RP. Wszelkie prawa zastrzeżone.